createdAt,value
2019-05-02T00:02:59.743Z,99690.84
2019-05-02T00:08:01.067Z,99693.68
2019-05-02T00:13:05.454Z,99693.68
2019-05-02T00:18:09.263Z,99686.67
2019-05-02T00:23:13.235Z,99681.08
2019-05-02T00:28:17.038Z,99681.08
2019-05-02T00:33:20.823Z,99669.04
2019-05-02T00:38:24.646Z,99678.45
2019-05-02T00:43:28.962Z,99683.14
2019-05-02T00:48:41.668Z,99654.08
2019-05-02T00:53:48.294Z,99667.00
2019-05-02T00:58:50.983Z,99667.00
2019-05-02T01:03:57.135Z,99658.97
2019-05-02T01:09:01.090Z,99649.02
2019-05-02T01:14:05.133Z,99649.02
2019-05-02T01:19:12.172Z,99659.27
2019-05-02T01:24:14.474Z,99653.97
2019-05-02T01:29:32.939Z,99643.14
2019-05-02T01:34:43.566Z,99646.02
2019-05-02T01:39:47.685Z,99646.02
2019-05-02T01:44:51.457Z,99643.33
2019-05-02T01:49:57.346Z,99627.00
2019-05-02T01:55:00.862Z,99607.78
2019-05-02T02:00:09.468Z,99609.12
2019-05-02T02:05:11.108Z,99613.89
2019-05-02T02:10:19.515Z,99609.86
2019-05-02T02:15:20.408Z,99609.86
2019-05-02T02:20:25.994Z,99609.36
2019-05-02T02:25:51.232Z,99596.02
2019-05-02T02:30:57.827Z,99596.02
2019-05-02T02:36:00.560Z,99611.55
2019-05-02T02:41:06.582Z,99607.52
2019-05-02T02:46:19.158Z,99607.52
2019-05-02T02:51:25.751Z,99610.20
2019-05-02T02:56:28.521Z,99609.08
2019-05-02T03:01:32.310Z,99606.59
2019-05-02T03:06:38.323Z,99607.39
2019-05-02T03:11:49.014Z,99605.67
2019-05-02T03:16:52.787Z,99605.17
2019-05-02T03:22:01.194Z,99608.23
2019-05-02T03:27:02.183Z,99609.36
2019-05-02T03:32:21.971Z,99606.05
2019-05-02T03:37:13.880Z,99601.70
2019-05-02T03:42:17.059Z,99605.89
2019-05-02T03:47:20.833Z,99605.89
2019-05-02T03:52:24.610Z,99602.48
2019-05-02T03:57:33.825Z,99596.09
2019-05-02T04:02:33.938Z,99609.36
2019-05-02T04:07:40.448Z,99609.08
2019-05-02T04:12:43.270Z,99607.31
2019-05-02T04:17:47.043Z,99607.31
2019-05-02T04:22:50.964Z,99609.81
2019-05-02T04:27:54.797Z,99589.91
2019-05-02T04:32:58.581Z,99602.78
2019-05-02T04:38:07.986Z,99605.62
2019-05-02T04:43:11.242Z,99612.42
2019-05-02T04:48:13.437Z,99617.75
2019-05-02T04:53:18.909Z,99617.75
2019-05-02T04:58:27.851Z,99610.30
2019-05-02T05:03:28.576Z,99607.91
2019-05-02T05:08:32.386Z,99607.91
2019-05-02T05:13:37.443Z,99615.28
2019-05-02T05:18:43.972Z,99618.13
2019-05-02T05:24:08.622Z,99618.23
2019-05-02T05:29:13.900Z,99615.93
2019-05-02T05:34:22.676Z,99622.89
2019-05-02T05:39:23.531Z,99618.01
2019-05-02T05:44:30.610Z,99618.01
2019-05-02T05:49:32.962Z,99604.39
2019-05-02T05:54:40.420Z,99617.73
2019-05-02T05:59:42.290Z,99605.19
2019-05-02T06:04:47.732Z,99618.02
2019-05-02T06:09:51.678Z,99619.87
2019-05-02T06:14:56.209Z,99611.11
2019-05-02T06:20:01.001Z,99608.56
2019-05-02T06:25:09.211Z,99608.56
2019-05-02T06:30:12.182Z,99607.38
2019-05-02T06:35:17.146Z,99611.41
2019-05-02T06:40:21.575Z,99611.41
2019-05-02T06:45:25.402Z,99606.99
2019-05-02T06:50:33.277Z,99606.99
2019-05-02T06:55:36.345Z,99611.49
2019-05-02T07:00:56.641Z,99611.64
2019-05-02T07:05:48.888Z,99611.64
2019-05-02T07:10:51.515Z,99602.39
2019-05-02T07:16:10.651Z,99602.39
2019-05-02T07:21:17.346Z,99606.30
2019-05-02T07:26:21.288Z,99601.23
2019-05-02T07:31:25.520Z,99598.64
2019-05-02T07:36:31.071Z,99598.64
2019-05-02T07:41:37.212Z,99597.68
2019-05-02T07:46:51.121Z,99606.09
2019-05-02T07:51:45.953Z,99606.09
2019-05-02T07:56:53.427Z,99600.05
2019-05-02T08:01:55.532Z,99586.08
2019-05-02T08:06:59.339Z,99586.08
2019-05-02T08:12:03.233Z,99596.52
2019-05-02T08:17:16.024Z,99593.45
2019-05-02T08:22:14.754Z,99593.45
2019-05-02T08:27:40.371Z,99604.00
2019-05-02T08:32:44.177Z,99598.09
2019-05-02T08:37:47.994Z,99594.99
2019-05-02T08:42:51.809Z,99600.17
2019-05-02T08:47:55.883Z,99590.50
2019-05-02T08:52:59.748Z,99590.50
2019-05-02T08:58:06.578Z,99575.64
2019-05-02T09:03:09.247Z,99575.64
2019-05-02T09:08:14.215Z,99572.45
2019-05-02T09:13:25.986Z,99567.22
2019-05-02T09:18:30.193Z,99564.32
2019-05-02T09:23:33.127Z,99564.32
2019-05-02T09:28:35.591Z,99555.40
2019-05-02T09:33:45.206Z,99547.77
2019-05-02T09:38:48.689Z,99547.77
2019-05-02T09:43:52.399Z,99548.66
2019-05-02T09:49:02.870Z,99528.78
2019-05-02T09:54:06.351Z,99523.42
2019-05-02T09:59:24.409Z,99530.59
2019-05-02T10:04:15.152Z,99530.59
2019-05-02T10:09:24.265Z,99508.34
2019-05-02T10:14:24.667Z,99513.97
2019-05-02T10:19:28.558Z,99508.00
2019-05-02T10:24:32.406Z,99508.00
2019-05-02T10:29:36.301Z,99479.43
2019-05-02T10:34:42.128Z,99480.68
2019-05-02T10:39:45.742Z,99476.30
2019-05-02T10:44:49.591Z,99474.16
2019-05-02T10:50:02.318Z,99474.16
2019-05-02T10:55:06.480Z,99469.46
2019-05-02T11:00:12.161Z,99463.59
2019-05-02T11:05:22.521Z,99454.38
2019-05-02T11:10:24.809Z,99442.41
2019-05-02T11:15:45.909Z,99438.56
2019-05-02T11:20:49.704Z,99438.50
2019-05-02T11:25:53.725Z,99445.69
2019-05-02T11:31:02.641Z,99445.69
2019-05-02T11:36:03.415Z,99425.91
2019-05-02T11:41:07.197Z,99423.53
2019-05-02T11:46:12.172Z,99419.11
2019-05-02T11:51:16.512Z,99413.32
2019-05-02T11:56:22.232Z,99405.41
2019-05-02T12:01:35.717Z,99409.06
2019-05-02T12:06:33.197Z,99409.06
2019-05-02T12:11:37.146Z,99409.92
2019-05-02T12:16:43.013Z,99415.20
2019-05-02T12:21:54.195Z,99403.45
2019-05-02T12:26:58.123Z,99403.45
2019-05-02T12:32:02.588Z,99409.56
2019-05-02T12:37:06.704Z,99409.56
2019-05-02T12:42:13.194Z,99403.38
2019-05-02T12:47:17.410Z,99403.38
2019-05-02T12:52:22.548Z,99393.36
2019-05-02T12:57:26.497Z,99394.24
2019-05-02T13:02:45.246Z,99396.39
2019-05-02T13:07:54.252Z,99388.44
2019-05-02T13:12:54.712Z,99388.44
2019-05-02T13:17:58.503Z,99390.20
2019-05-02T13:23:35.415Z,99387.81
2019-05-02T13:28:33.633Z,99391.73
2019-05-02T13:33:53.309Z,99391.88
2019-05-02T13:38:57.192Z,99391.88
2019-05-02T13:44:02.178Z,99363.81
2019-05-02T13:49:06.025Z,99385.01
2019-05-02T13:54:09.814Z,99380.94
2019-05-02T13:59:13.638Z,99380.94
2019-05-02T14:04:17.587Z,99391.09
2019-05-02T14:09:27.142Z,99388.59
2019-05-02T14:14:32.606Z,99382.13
2019-05-02T14:19:36.554Z,99384.58
2019-05-02T14:24:42.132Z,99378.05
2019-05-02T14:29:46.125Z,99374.55
2019-05-02T14:35:05.226Z,99376.48
2019-05-02T14:40:15.268Z,99366.92
2019-05-02T14:45:30.073Z,99366.92
2019-05-02T14:50:26.591Z,99368.11
2019-05-02T14:55:32.457Z,99353.79
2019-05-02T15:00:45.806Z,99346.70
2019-05-02T15:05:45.914Z,99342.28
2019-05-02T15:10:54.395Z,99338.25
2019-05-02T15:15:55.264Z,99330.63
2019-05-02T15:20:59.060Z,99325.12
2019-05-02T15:26:02.864Z,99325.12
2019-05-02T15:31:11.808Z,99322.43
2019-05-02T15:36:15.858Z,99322.43
2019-05-02T15:41:19.660Z,99319.90
2019-05-02T15:46:28.136Z,99310.58
2019-05-02T15:51:29.114Z,99301.41
2019-05-02T15:56:35.586Z,99301.48
2019-05-02T16:01:47.801Z,99290.75
2019-05-02T16:06:52.893Z,99290.75
2019-05-02T16:11:57.115Z,99287.03
2019-05-02T16:17:03.172Z,99283.84
2019-05-02T16:22:24.905Z,99275.11
2019-05-02T16:27:47.620Z,99271.34
2019-05-02T16:32:59.153Z,99258.12
2019-05-02T16:38:02.958Z,99259.66
2019-05-02T16:43:06.788Z,99259.66
2019-05-02T16:48:12.039Z,99257.85
2019-05-02T16:53:17.243Z,99251.33
2019-05-02T16:58:21.527Z,99251.33
2019-05-02T17:03:26.604Z,99250.89
2019-05-02T17:08:57.514Z,99251.22
2019-05-02T17:13:58.234Z,99251.22
2019-05-02T17:19:02.040Z,99250.67
2019-05-02T17:24:05.884Z,99252.80
2019-05-02T17:29:11.838Z,99257.74
2019-05-02T17:34:15.367Z,99262.52
2019-05-02T17:39:19.151Z,99262.52
2019-05-02T17:44:24.672Z,99256.03
2019-05-02T17:49:34.911Z,99264.55
2019-05-02T17:54:34.303Z,99264.55
2019-05-02T17:59:38.071Z,99272.12
2019-05-02T18:04:42.068Z,99271.86
2019-05-02T18:09:46.166Z,99271.86
2019-05-02T18:14:51.411Z,99275.84
2019-05-02T18:19:56.717Z,99277.05
2019-05-02T18:25:02.290Z,99277.05
2019-05-02T18:30:07.236Z,99281.16
2019-05-02T18:35:11.752Z,99277.92
2019-05-02T18:40:15.722Z,99277.92
2019-05-02T18:45:25.491Z,99268.97
2019-05-02T18:50:36.727Z,99268.97
2019-05-02T18:55:38.073Z,99284.99
2019-05-02T19:00:42.137Z,99277.13
2019-05-02T19:05:46.753Z,99277.13
2019-05-02T19:11:04.717Z,99272.09
2019-05-02T19:15:58.254Z,99259.74
2019-05-02T19:21:03.017Z,99269.34
2019-05-02T19:26:14.606Z,99269.34
2019-05-02T19:31:13.186Z,99276.78
2019-05-02T19:36:24.187Z,99267.33
2019-05-02T19:41:22.505Z,99271.34
2019-05-02T19:46:34.755Z,99272.02
2019-05-02T19:51:31.917Z,99275.20
2019-05-02T19:56:45.339Z,99272.77
2019-05-02T20:01:41.261Z,99267.92
2019-05-02T20:06:45.108Z,99267.92
2019-05-02T20:11:48.976Z,99258.98
2019-05-02T20:16:53.373Z,99258.98
2019-05-02T20:22:11.857Z,99257.30
2019-05-02T20:27:15.745Z,99259.83
2019-05-02T20:32:19.577Z,99268.64
2019-05-02T20:37:23.522Z,99268.64
2019-05-02T20:42:27.439Z,99279.84
2019-05-02T20:47:31.290Z,99293.80
2019-05-02T20:52:35.166Z,99310.68
2019-05-02T20:57:38.953Z,99306.65
2019-05-02T21:02:42.776Z,99306.65
2019-05-02T21:08:05.666Z,99317.96
2019-05-02T21:13:09.474Z,99313.09
2019-05-02T21:18:13.264Z,99313.09
2019-05-02T21:23:17.160Z,99305.99
2019-05-02T21:28:22.694Z,99316.63
2019-05-02T21:33:39.412Z,99317.96
2019-05-02T21:38:43.219Z,99317.96
2019-05-02T21:43:47.018Z,99322.72
2019-05-02T21:48:52.738Z,99324.75
2019-05-02T21:54:08.316Z,99326.09
2019-05-02T21:59:12.516Z,99326.09
2019-05-02T22:04:16.346Z,99325.09
2019-05-02T22:09:20.144Z,99317.88
2019-05-02T22:14:24.057Z,99315.18
2019-05-02T22:19:27.850Z,99316.02
2019-05-02T22:24:31.658Z,99309.64
2019-05-02T22:29:35.447Z,99309.64
2019-05-02T22:34:39.264Z,99310.48
2019-05-02T22:39:50.999Z,99308.64
2019-05-02T22:44:54.789Z,99313.02
2019-05-02T22:49:58.631Z,99317.55
2019-05-02T22:55:03.003Z,99320.61
2019-05-02T23:00:07.132Z,99324.65
2019-05-02T23:05:12.390Z,99324.65
2019-05-02T23:10:16.232Z,99319.27
2019-05-02T23:15:21.659Z,99320.61
2019-05-02T23:20:25.507Z,99320.61
2019-05-02T23:25:46.970Z,99329.53
2019-05-02T23:30:51.908Z,99317.92
2019-05-02T23:35:55.794Z,99312.55
2019-05-02T23:40:59.660Z,99306.80
2019-05-02T23:46:03.441Z,99312.55
2019-05-02T23:51:07.211Z,99318.90
2019-05-02T23:56:13.028Z,99320.23
